Terminal Aerodrome Forecast
Issued by NWS

Home | Current Version | Previous Version | Text Only | Print | Product List | Glossary On
Versions: 1 2 3 4 5 6 7 8 9 10 11 12 13 14 15 16 17 18 19 20 21 22 23 24 25 26 27 28 29 30 31 32 33 34
260
FTUS44 KEWX 160520
TAFSSF
TAF
KSSF 160520Z 1606/1706 00000KT P6SM OVC012
     FM160800 VRB03KT 5SM BR OVC007
     FM161100 VRB03KT 1/2SM FG OVC003
     FM161700 VRB03KT 3SM BR OVC006
     FM170100 VRB03KT 1SM BR OVC004=

USA.gov is the U.S. government's official web portal to all federal, state and local government web resources and services.